Grande-Entree, Canada
Current Conditions -  °F | °C
As of 1:00 PM on Friday 24 Oct 2014 (Local Time) from CYGR Reporting Station
Light Rain Light Rain  
Wind Chill: 50°   Ceiling: 400
Heat Index: 50°   Visibility: 5mi
Dew Point: 48°   Wind: 21mph
Humidity: 94%   Direction: 70°ENE
Pressure: 29.65"   Gusts: 28mph
Location:  47.55°N, 61.57°W
Report Text: CYGR 241600Z 07018G24KT 5SM -RA BR OVC004 10/09 A2965 RMK SF8 PRESFR SLP041
Loading
Personal Weather Stations






























Interactive Weather Map
Tropical Storm Tracking
New forecast layout! Learn more

10-Day Weather Forecast

Advertisements
Track Severe Weather on mobile